createdAt,value
2023-03-01T00:03:02.259Z,4.18
2023-03-01T00:06:06.052Z,3.75
2023-03-01T00:09:09.523Z,3.72
2023-03-01T00:12:14.268Z,3.63
2023-03-01T00:15:17.589Z,3.83
2023-03-01T00:18:21.056Z,3.38
2023-03-01T00:21:25.314Z,3.60
2023-03-01T00:24:28.743Z,2.92
2023-03-01T00:27:33.502Z,3.05
2023-03-01T00:30:37.153Z,3.53
2023-03-01T00:33:40.825Z,3.40
2023-03-01T00:36:44.204Z,3.50
2023-03-01T00:39:47.567Z,3.53
2023-03-01T00:42:52.381Z,2.97
2023-03-01T00:45:56.257Z,3.13
2023-03-01T00:49:02.822Z,2.83
2023-03-01T00:52:06.445Z,3.20
2023-03-01T00:55:10.243Z,2.65
2023-03-01T00:58:15.036Z,2.63
2023-03-01T01:01:20.240Z,3.15
2023-03-01T01:04:23.777Z,2.88
2023-03-01T01:07:27.281Z,2.80
2023-03-01T01:10:30.679Z,2.80
2023-03-01T01:13:35.848Z,2.67
2023-03-01T01:16:39.330Z,2.75
2023-03-01T01:19:42.735Z,2.20
2023-03-01T01:22:46.393Z,2.03
2023-03-01T01:25:49.794Z,2.78
2023-03-01T01:28:55.273Z,3.22
2023-03-01T01:31:58.712Z,3.03
2023-03-01T01:35:02.124Z,2.88
2023-03-01T01:38:05.613Z,2.63
2023-03-01T01:41:09.561Z,2.58
2023-03-01T01:44:15.854Z,3.13
2023-03-01T01:47:20.927Z,2.55
2023-03-01T01:50:25.005Z,2.78
2023-03-01T01:53:30.070Z,2.78
2023-03-01T01:56:33.475Z,2.72
2023-03-01T01:59:39.039Z,2.97
2023-03-01T02:02:43.785Z,3.33
2023-03-01T02:05:55.200Z,2.60
2023-03-01T02:09:01.142Z,2.90
2023-03-01T02:12:05.381Z,3.17
2023-03-01T02:15:10.569Z,3.53
2023-03-01T02:18:17.571Z,2.50
2023-03-01T02:21:29.786Z,2.60
2023-03-01T02:24:38.506Z,3.00
2023-03-01T02:27:49.994Z,2.90
2023-03-01T02:31:13.842Z,3.30
2023-03-01T02:34:18.915Z,3.03
2023-03-01T02:37:25.522Z,2.75
2023-03-01T02:40:30.450Z,3.03
2023-03-01T02:43:34.349Z,2.63
2023-03-01T02:46:44.773Z,2.70
2023-03-01T02:49:48.384Z,3.08
2023-03-01T02:52:56.029Z,2.63
2023-03-01T02:56:00.826Z,2.65
2023-03-01T02:59:04.534Z,3.05
2023-03-01T03:02:10.645Z,2.95
2023-03-01T03:05:16.560Z,3.03
2023-03-01T03:08:24.708Z,2.87
2023-03-01T03:11:28.925Z,3.42
2023-03-01T03:14:35.729Z,3.05
2023-03-01T03:17:41.013Z,3.40
2023-03-01T03:20:45.683Z,2.57
2023-03-01T03:23:49.086Z,2.90
2023-03-01T03:26:52.389Z,2.75
2023-03-01T03:29:55.738Z,2.65
2023-03-01T03:33:00.954Z,3.70
2023-03-01T03:36:04.377Z,2.88
2023-03-01T03:39:07.844Z,3.13
2023-03-01T03:42:11.438Z,3.17
2023-03-01T03:45:14.875Z,3.20
2023-03-01T03:48:19.918Z,3.45
2023-03-01T03:51:24.083Z,3.33
2023-03-01T03:54:27.440Z,3.08
2023-03-01T03:57:30.832Z,3.03
2023-03-01T04:00:34.303Z,3.17
2023-03-01T04:03:39.052Z,3.25
2023-03-01T04:06:42.607Z,3.17
2023-03-01T04:09:46.457Z,3.15
2023-03-01T04:12:49.939Z,3.65
2023-03-01T04:15:53.657Z,3.70
2023-03-01T04:19:00.492Z,3.13
2023-03-01T04:22:08.330Z,3.13
2023-03-01T04:25:14.918Z,3.78
2023-03-01T04:28:18.619Z,3.67
2023-03-01T04:31:22.706Z,3.72
2023-03-01T04:34:28.507Z,3.05
2023-03-01T04:37:31.958Z,3.58
2023-03-01T04:40:35.290Z,3.55
2023-03-01T04:43:39.251Z,3.70
2023-03-01T04:46:42.743Z,3.03
2023-03-01T04:49:47.464Z,3.55
2023-03-01T04:52:50.817Z,3.10
2023-03-01T04:55:54.406Z,3.95
2023-03-01T04:58:57.813Z,3.35
2023-03-01T05:02:02.226Z,3.70
2023-03-01T05:05:07.372Z,3.17
2023-03-01T05:08:18.235Z,3.22
2023-03-01T05:11:21.575Z,3.47
2023-03-01T05:14:25.217Z,3.53
2023-03-01T05:17:28.664Z,3.42
2023-03-01T05:20:33.410Z,2.78
2023-03-01T05:23:37.030Z,3.05
2023-03-01T05:26:41.466Z,2.55
2023-03-01T05:29:45.205Z,2.70
2023-03-01T05:32:49.731Z,3.22
2023-03-01T05:35:54.717Z,2.95
2023-03-01T05:38:58.190Z,2.28
2023-03-01T05:42:02.816Z,2.83
2023-03-01T05:45:10.429Z,2.75
2023-03-01T05:48:15.107Z,3.90
2023-03-01T05:51:19.842Z,2.80
2023-03-01T05:54:23.615Z,2.53
2023-03-01T05:57:27.005Z,3.03
2023-03-01T06:00:30.945Z,2.78
2023-03-01T06:03:35.080Z,3.28
2023-03-01T06:06:40.365Z,2.42
2023-03-01T06:09:43.785Z,3.20
2023-03-01T06:12:47.168Z,3.45
2023-03-01T06:15:51.189Z,2.72
2023-03-01T06:18:54.484Z,3.28
2023-03-01T06:21:59.201Z,3.40
2023-03-01T06:25:02.625Z,3.08
2023-03-01T06:28:06.444Z,3.78
2023-03-01T06:31:10.429Z,3.65
2023-03-01T06:34:14.503Z,4.13
2023-03-01T06:37:20.512Z,4.00
2023-03-01T06:40:29.806Z,4.07
2023-03-01T06:43:38.449Z,3.45
2023-03-01T06:46:42.049Z,3.22
2023-03-01T06:49:45.411Z,3.25
2023-03-01T06:52:50.098Z,3.20
2023-03-01T06:55:56.457Z,2.97
2023-03-01T06:59:00.034Z,3.97
2023-03-01T07:02:03.468Z,2.88
2023-03-01T07:05:07.293Z,3.00
2023-03-01T07:08:12.050Z,3.30
2023-03-01T07:11:15.591Z,3.25
2023-03-01T07:14:20.719Z,3.17
2023-03-01T07:17:24.215Z,3.15
2023-03-01T07:20:27.647Z,3.33
2023-03-01T07:23:32.417Z,3.00
2023-03-01T07:26:35.939Z,3.25
2023-03-01T07:29:39.500Z,3.50
2023-03-01T07:32:43.081Z,3.83
2023-03-01T07:35:47.404Z,3.63
2023-03-01T07:38:52.423Z,3.80
2023-03-01T07:41:56.061Z,4.43
2023-03-01T07:44:59.917Z,4.22
2023-03-01T07:48:03.526Z,3.97
2023-03-01T07:51:07.983Z,6.88
2023-03-01T07:54:13.307Z,4.60
2023-03-01T07:57:18.761Z,3.95
2023-03-01T08:00:23.409Z,4.80
2023-03-01T08:03:27.844Z,4.78
2023-03-01T08:06:32.192Z,9.38
2023-03-01T08:09:38.691Z,9.07
2023-03-01T08:12:42.129Z,9.27
2023-03-01T08:15:45.727Z,7.78
2023-03-01T08:18:49.145Z,6.15
2023-03-01T08:21:52.739Z,6.40
2023-03-01T08:24:57.550Z,5.55
2023-03-01T08:28:00.919Z,5.40
2023-03-01T08:31:04.387Z,5.70
2023-03-01T08:34:09.246Z,4.90
2023-03-01T08:37:12.886Z,4.95
2023-03-01T08:40:17.804Z,4.68
2023-03-01T08:43:22.781Z,4.85
2023-03-01T08:46:26.290Z,5.32
2023-03-01T08:49:29.592Z,5.03
2023-03-01T08:52:34.803Z,4.47
2023-03-01T08:55:39.618Z,5.38
2023-03-01T08:58:45.854Z,5.90
2023-03-01T09:01:49.323Z,7.20
2023-03-01T09:04:52.889Z,7.45
2023-03-01T09:07:56.352Z,5.28
2023-03-01T09:11:01.036Z,5.20
2023-03-01T09:14:07.760Z,5.53
2023-03-01T09:17:11.307Z,5.32
2023-03-01T09:20:14.785Z,6.20
2023-03-01T09:23:18.439Z,6.05
2023-03-01T09:26:24.338Z,5.53
2023-03-01T09:29:27.805Z,5.88
2023-03-01T09:32:32.944Z,5.65
2023-03-01T09:35:36.335Z,6.05
2023-03-01T09:38:39.706Z,5.10
2023-03-01T09:41:48.775Z,5.10
2023-03-01T09:44:54.106Z,6.22
2023-03-01T09:47:58.260Z,5.40
2023-03-01T09:51:03.371Z,5.28
2023-03-01T09:54:09.372Z,5.63
2023-03-01T09:57:29.875Z,5.18
2023-03-01T10:00:37.488Z,5.43
2023-03-01T10:03:44.316Z,5.57
2023-03-01T10:06:49.683Z,4.93
2023-03-01T10:09:53.011Z,5.50
2023-03-01T10:12:58.680Z,5.95
2023-03-01T10:16:04.433Z,4.82
2023-03-01T10:19:08.740Z,5.00
2023-03-01T10:22:16.283Z,4.72
2023-03-01T10:25:23.479Z,4.78
2023-03-01T10:28:33.489Z,5.38
2023-03-01T10:31:41.346Z,5.28
2023-03-01T10:34:44.852Z,5.07
2023-03-01T10:38:01.134Z,5.15
2023-03-01T10:41:07.589Z,4.50
2023-03-01T10:44:32.409Z,4.88
2023-03-01T10:47:35.960Z,5.57
2023-03-01T10:50:42.261Z,5.03
2023-03-01T10:53:50.481Z,5.00
2023-03-01T10:56:56.399Z,5.55
2023-03-01T11:00:22.084Z,4.80
2023-03-01T11:03:26.148Z,5.32
2023-03-01T11:06:29.585Z,5.18
2023-03-01T11:09:38.395Z,5.30
2023-03-01T11:12:42.010Z,5.50
2023-03-01T11:16:00.811Z,5.65
2023-03-01T11:19:16.390Z,4.47
2023-03-01T11:22:21.628Z,4.38
2023-03-01T11:25:27.166Z,5.55
2023-03-01T11:28:31.699Z,4.72
2023-03-01T11:31:40.473Z,4.30
2023-03-01T11:34:51.072Z,4.65
2023-03-01T11:38:01.838Z,5.28
2023-03-01T11:41:08.844Z,4.15
2023-03-01T11:44:17.329Z,5.20
2023-03-01T11:47:32.888Z,4.15
2023-03-01T11:50:42.919Z,3.92
2023-03-01T11:53:54.093Z,4.55
2023-03-01T11:56:58.371Z,4.10
2023-03-01T12:00:20.309Z,4.50
2023-03-01T12:03:31.295Z,4.28
2023-03-01T12:06:45.788Z,3.50
2023-03-01T12:09:59.181Z,4.15
2023-03-01T12:13:20.599Z,3.63
2023-03-01T12:16:39.039Z,3.25
2023-03-01T12:19:54.584Z,3.25
2023-03-01T12:23:19.753Z,3.67
2023-03-01T12:26:28.778Z,3.80
2023-03-01T12:29:34.431Z,3.47
2023-03-01T12:32:43.011Z,3.15
2023-03-01T12:36:01.313Z,3.65
2023-03-01T12:39:12.791Z,4.03
2023-03-01T12:42:23.634Z,3.88
2023-03-01T12:45:51.096Z,3.65
2023-03-01T12:49:01.295Z,3.72
2023-03-01T12:52:07.114Z,3.92
2023-03-01T12:55:20.872Z,3.83
2023-03-01T12:58:34.156Z,4.38
2023-03-01T13:01:47.643Z,4.35
2023-03-01T13:05:04.843Z,3.95
2023-03-01T13:08:11.456Z,4.40
2023-03-01T13:11:20.780Z,4.00
2023-03-01T13:14:40.192Z,3.75
2023-03-01T13:17:45.689Z,2.72
2023-03-01T13:20:50.455Z,3.00
2023-03-01T13:23:53.888Z,3.28
2023-03-01T13:27:14.844Z,4.00
2023-03-01T13:30:42.849Z,3.22
2023-03-01T13:33:50.725Z,3.13
2023-03-01T13:36:54.325Z,2.67
2023-03-01T13:39:59.826Z,3.53
2023-03-01T13:43:23.104Z,3.80
2023-03-01T13:46:28.135Z,2.55
2023-03-01T13:49:45.954Z,2.65
2023-03-01T13:52:52.940Z,2.30
2023-03-01T13:55:59.775Z,2.10
2023-03-01T13:59:05.135Z,2.38
2023-03-01T14:02:15.124Z,2.03
2023-03-01T14:05:19.412Z,2.15
2023-03-01T14:08:24.864Z,2.00
2023-03-01T14:11:43.379Z,2.83
2023-03-01T14:14:49.611Z,1.90
2023-03-01T14:17:58.531Z,2.08
2023-03-01T14:21:03.757Z,1.98
2023-03-01T14:24:07.528Z,1.98
2023-03-01T14:27:13.947Z,2.28
2023-03-01T14:30:18.448Z,2.22
2023-03-01T14:33:25.490Z,2.53
2023-03-01T14:36:29.401Z,2.00
2023-03-01T14:39:34.944Z,2.20
2023-03-01T14:42:39.091Z,3.50
2023-03-01T14:45:43.273Z,3.22
2023-03-01T14:48:48.073Z,3.10
2023-03-01T14:51:54.246Z,3.15
2023-03-01T14:54:58.233Z,2.50
2023-03-01T14:58:03.718Z,3.15
2023-03-01T15:01:09.230Z,2.92
2023-03-01T15:04:16.259Z,2.40
2023-03-01T15:07:20.136Z,2.50
2023-03-01T15:10:24.310Z,2.17
2023-03-01T15:13:28.636Z,1.80
2023-03-01T15:16:33.183Z,2.38
2023-03-01T15:19:38.115Z,1.70
2023-03-01T15:22:41.417Z,1.92
2023-03-01T15:25:47.345Z,1.77
2023-03-01T15:28:52.914Z,1.92
2023-03-01T15:31:57.991Z,1.83
2023-03-01T15:35:04.076Z,1.35
2023-03-01T15:38:26.204Z,1.55
2023-03-01T15:41:31.833Z,1.40
2023-03-01T15:44:43.306Z,1.52
2023-03-01T15:47:50.902Z,1.55
2023-03-01T16:30:30.118Z,2.25
2023-03-01T16:33:34.787Z,2.20
2023-03-01T16:36:38.110Z,1.77
2023-03-01T16:39:42.304Z,2.95
2023-03-01T16:42:45.830Z,2.17
2023-03-01T16:45:50.476Z,2.80
2023-03-01T16:48:54.300Z,2.47
2023-03-01T16:51:57.659Z,3.33
2023-03-01T16:55:00.971Z,3.38
2023-03-01T16:58:05.289Z,3.17
2023-03-01T17:01:12.601Z,3.67
2023-03-01T17:04:16.207Z,3.50
2023-03-01T17:07:20.327Z,3.75
2023-03-01T17:10:23.632Z,3.90
2023-03-01T17:13:27.099Z,3.35
2023-03-01T17:16:31.965Z,4.45
2023-03-01T17:19:40.637Z,3.35
2023-03-01T17:22:44.083Z,3.45
2023-03-01T17:25:47.734Z,4.18
2023-03-01T17:28:52.267Z,4.05
2023-03-01T17:32:32.753Z,4.40
